BA1318 / G-EUOH 7700 Squawk Report (21st of January, 2019)

Aircraft A319 Reg No. G-EUOH Age 17 years old
Model A319 Jet engines 2 First flight 08-10-01
Registered 14-12-01 Rollout 09-01 Delivered 14-12-01
Construction No. 1604 Line No. N/A Series 131
ADSHEX 400940 Airline name British Airways Owner N/A
Airfield based Heathrow~Gtr London~G First tracked 2017-07-13 08:15:00

Flight history for G-EUOH

Route Flight No Date Playback
Heathrow (LHR) - Franz Josef Strauss (MUC) BA958 2019-02-18 20:44:00
Franz Josef Strauss (MUC) - Heathrow (LHR) BA955 2019-02-18 20:07:00
Heathrow (LHR) - Franz Josef Strauss (MUC) BA954 2019-02-18 15:50:00
Leeds Bradford (LBA) - Heathrow (LHR) BA1347 2019-02-18 13:58:00
Heathrow (LHR) - Leeds Bradford (LBA) BA1346 2019-02-18 11:21:00
Dublin (DUB) - Heathrow (LHR) BA831 2019-02-18 09:28:00
Heathrow (LHR) - Dublin (DUB) BA824 2019-02-18 07:03:00
Tegel (TXL) - Heathrow (LHR) BA987 2019-02-17 21:34:00
Heathrow (LHR) - Tegel (TXL) BA986 2019-02-17 19:17:00
Kastrup (CPH) - Heathrow (LHR) BA817 2019-02-17 15:54:00
Heathrow (LHR) - Kastrup (CPH) BA816 2019-02-17 13:12:00
Manchester (MAN) - Heathrow (LHR) BA1407 2019-02-17 11:35:00
Heathrow (LHR) - Manchester (MAN) BA1406 2019-02-16 16:51:00
Inverness (INV) - Heathrow (LHR) BA1469 2019-02-16 14:30:00
Heathrow (LHR) - Inverness (INV) BA1468 2019-02-16 13:09:00
Franz Josef Strauss (MUC) - Heathrow (LHR) BA947 2019-02-16 10:23:00
Heathrow (LHR) - Franz Josef Strauss (MUC) BA958 2019-02-16 07:04:00
Fiumicino (FCO) - Heathrow (LHR) BA559 2019-02-15 20:02:00
Heathrow (LHR) - Fiumicino (FCO) BA560 2019-02-15 16:32:00
Billund (BLL) - Heathrow (LHR) BA805 2019-02-15 13:24:00
Time Lat Lon Altitude Heading Speed Vertical Rate
2019-01-21 21:44:25 GMT 57.201378 -2.202914 0 247 5 0
2019-01-21 21:44:03 GMT 57.201244 -2.201643 0 337 13 0
2019-01-21 21:43:55 GMT 57.200787 -2.201321 0 340 15 0
2019-01-21 21:43:37 GMT 57.199398 -2.199924 0 315 25 0
2019-01-21 21:43:24 GMT 57.198235 -2.198253 0 337 22 0
2019-01-21 21:43:09 GMT 57.196770 -2.197177 0 337 24 0
2019-01-21 21:41:12 GMT 57.210793 -2.204265 625 158 126 -640
2019-01-21 21:40:56 GMT 57.219681 -2.210913 825 158 124 -448
2019-01-21 21:40:51 GMT 57.218811 -2.210312 800 157 125 -512
2019-01-21 21:40:47 GMT 57.221500 -2.212239 850 158 122 -768
2019-01-21 21:40:41 GMT 57.224762 -2.214603 1,225 157 122 -704
2019-01-21 21:40:38 GMT 57.226227 -2.215719 975 157 122 -640
2019-01-21 21:40:27 GMT 57.231834 -2.219947 1,075 158 123 -768
2019-01-21 21:40:17 GMT 57.236908 -2.223668 1,200 158 122 -704
2019-01-21 21:40:12 GMT 57.240372 -2.226191 1,275 158 122 -704
2019-01-21 21:40:09 GMT 57.242889 -2.227993 1,375 157 123 -768
2019-01-21 21:40:06 GMT 57.244495 -2.229161 1,375 157 123 -768
2019-01-21 21:40:03 GMT 57.244495 -2.229161 1,350 158 122 -576
2019-01-21 21:39:57 GMT 57.247513 -2.231512 1,425 157 123 -832
2019-01-21 21:39:52 GMT 57.249943 -2.233326 1,475 157 122 -640
2019-01-21 21:39:46 GMT 57.253189 -2.235718 1,550 157 122 -768
2019-01-21 21:39:43 GMT 57.254925 -2.237047 1,600 157 121 -768
2019-01-21 21:39:37 GMT 57.258041 -2.239350 1,775 157 120 -576
2019-01-21 21:39:33 GMT 57.260193 -2.240953 1,725 157 119 -640
2019-01-21 21:39:27 GMT 57.263260 -2.243357 1,800 157 121 -512
2019-01-21 21:39:23 GMT 57.268890 -2.247590 1,900 158 120 -448
2019-01-21 21:39:16 GMT 57.268890 -2.247590 1,875 158 120 -512
2019-01-21 21:39:12 GMT 57.270859 -2.249022 1,925 158 120 -640
2019-01-21 21:39:05 GMT 57.274384 -2.251596 1,975 158 119 -576
2019-01-21 21:39:02 GMT 57.275871 -2.252640 2,025 159 117 -576
2019-01-21 21:38:55 GMT 57.279549 -2.255298 2,100 157 119 -640
2019-01-21 21:38:52 GMT 57.281178 -2.256539 2,125 158 121 -832
2019-01-21 21:38:45 GMT 57.284866 -2.259321 2,225 157 124 -1024
2019-01-21 21:38:42 GMT 57.286488 -2.260526 2,275 158 126 -832
2019-01-21 21:38:32 GMT 57.293152 -2.265415 2,400 158 139 -704
2019-01-21 21:38:26 GMT 57.295807 -2.267303 2,450 158 141 -832
2019-01-21 21:38:23 GMT 57.297146 -2.268322 2,475 158 141 -832
2019-01-21 21:38:19 GMT 57.302502 -2.272132 2,600 158 142 -640
2019-01-21 21:38:12 GMT 57.303864 -2.273140 2,625 158 143 -640
2019-01-21 21:38:09 GMT 57.305603 -2.274427 2,650 158 145 -768
2019-01-21 21:38:00 GMT 57.311829 -2.279062 2,775 157 147 -448
2019-01-21 21:37:54 GMT 57.316177 -2.282410 2,850 156 154 64
2019-01-21 21:37:49 GMT 57.318466 -2.284298 2,875 156 154 64
2019-01-21 21:37:43 GMT 57.322609 -2.287637 2,875 155 157 -128
2019-01-21 21:37:39 GMT 57.325104 -2.289877 2,875 154 158 -64
2019-01-21 21:37:35 GMT 57.328152 -2.292599 2,925 149 155 192
2019-01-21 21:37:29 GMT 57.331734 -2.296231 2,925 149 155 192
2019-01-21 21:37:25 GMT 57.334248 -2.298889 2,900 147 154 192
2019-01-21 21:37:19 GMT 57.337742 -2.303496 2,875 137 163 0
2019-01-21 21:37:15 GMT 57.340115 -2.307926 2,875 127 172 -64
2019-01-21 21:37:08 GMT 57.342720 -2.315546 2,900 116 179 64
2019-01-21 21:37:04 GMT 57.344421 -2.321892 2,900 114 179 0
2019-01-21 21:36:58 GMT 57.346352 -2.329367 2,900 114 179 0
2019-01-21 21:36:54 GMT 57.347855 -2.335796 2,900 112 181 64
2019-01-21 21:36:49 GMT 57.349655 -2.344252 2,900 109 182 128
2019-01-21 21:36:44 GMT 57.350681 -2.350188 2,900 103 187 64
2019-01-21 21:36:37 GMT 57.351334 -2.361263 2,900 87 198 -64
2019-01-21 21:36:34 GMT 57.351006 -2.367377 2,900 80 203 0
2019-01-21 21:36:27 GMT 57.349751 -2.378894 2,900 77 203 -192
2019-01-21 21:36:22 GMT 57.348633 -2.387666 2,925 76 202 -192
2019-01-21 21:36:18 GMT 57.347702 -2.394399 2,950 74 203 -256
2019-01-21 21:36:14 GMT 57.346573 -2.401371 2,950 70 206 -512
2019-01-21 21:36:07 GMT 57.344070 -2.411410 3,025 57 213 -1088
2019-01-21 21:36:03 GMT 57.341511 -2.417967 3,100 46 217 -1088
2019-01-21 21:35:58 GMT 57.337189 -2.425232 3,225 35 220 -1152
2019-01-21 21:35:54 GMT 57.333923 -2.429130 3,300 27 221 -768
2019-01-21 21:35:45 GMT 57.325821 -2.434358 3,400 8 223 0
2019-01-21 21:35:42 GMT 57.323357 -2.434978 3,400 4 223 0
2019-01-21 21:35:37 GMT 57.317116 -2.435066 3,400 356 228 128
2019-01-21 21:35:33 GMT 57.313347 -2.434535 3,375 355 245 0
2019-01-21 21:35:26 GMT 57.306412 -2.433294 3,375 355 240 64
2019-01-21 21:35:23 GMT 57.302406 -2.432586 3,375 355 245 0
2019-01-21 21:35:16 GMT 57.295143 -2.431257 3,375 355 249 -64
2019-01-21 21:35:13 GMT 57.291000 -2.430548 3,375 355 252 -128
2019-01-21 21:35:06 GMT 57.283310 -2.429094 3,375 355 257 64
2019-01-21 21:35:02 GMT 57.278549 -2.428322 3,375 355 261 0
2019-01-21 21:34:56 GMT 57.270565 -2.427004 3,400 356 266 -256
2019-01-21 21:34:52 GMT 57.266094 -2.426295 3,400 356 269 -256
2019-01-21 21:34:45 GMT 57.257812 -2.425146 3,425 356 277 -256
2019-01-21 21:34:42 GMT 57.253693 -2.424545 3,450 356 281 -576
2019-01-21 21:34:32 GMT 57.232452 -2.421627 3,600 356 295 -576
2019-01-21 21:34:25 GMT 57.230530 -2.421422 3,625 356 296 -512
2019-01-21 21:34:21 GMT 57.224991 -2.420625 3,650 356 302 -448
2019-01-21 21:34:15 GMT 57.216053 -2.419384 3,700 356 307 -576
2019-01-21 21:34:10 GMT 57.209766 -2.418498 3,775 356 313 -832
2019-01-21 21:34:05 GMT 57.201920 -2.417336 3,850 356 317 -768
2019-01-21 21:33:59 GMT 57.193985 -2.416106 3,900 356 322 -768
2019-01-21 21:33:54 GMT 57.186539 -2.414846 3,975 355 325 -960
2019-01-21 21:33:49 GMT 57.178391 -2.413537 4,075 355 330 -1024
2019-01-21 21:33:45 GMT 57.171432 -2.412271 4,150 355 333 -960
2019-01-21 21:33:41 GMT 57.165894 -2.411327 4,200 355 336 -896
2019-01-21 21:33:38 GMT 57.162472 -2.410702 4,250 355 338 -832
2019-01-21 21:33:34 GMT 57.155273 -2.409525 4,300 355 342 -704
2019-01-21 21:33:31 GMT 57.150192 -2.408752 4,400 356 350 -448
2019-01-21 21:33:28 GMT 57.146084 -2.408132 4,375 356 347 -512
2019-01-21 21:33:24 GMT 57.138702 -2.407036 4,425 356 351 -448
2019-01-21 21:33:20 GMT 57.133484 -2.406349 4,450 356 352 -448
2019-01-21 21:33:17 GMT 57.128952 -2.405748 4,525 357 358 -320
2019-01-21 21:33:14 GMT 57.122715 -2.404943 4,500 356 356 -384
2019-01-21 21:33:10 GMT 57.116756 -2.404145 4,525 357 358 -384
2019-01-21 21:33:00 GMT 57.091324 -2.400770 4,625 356 358 -576
2019-01-21 21:32:54 GMT 57.088669 -2.400427 4,650 356 358 -576
2019-01-21 21:32:50 GMT 57.083706 -2.399804 4,675 357 358 -512
2019-01-21 21:32:43 GMT 57.071835 -2.398298 4,725 357 358 -448
2019-01-21 21:32:39 GMT 57.065224 -2.397500 4,775 357 358 -448
2019-01-21 21:32:30 GMT 57.041435 -2.394399 4,875 357 358 -448
2019-01-21 21:32:23 GMT 57.036827 -2.393779 4,900 356 359 -448
2019-01-21 21:32:19 GMT 57.031521 -2.393159 4,925 356 360 -448
2019-01-21 21:32:12 GMT 57.020161 -2.391564 4,975 356 363 -512
2019-01-21 21:32:09 GMT 57.016155 -2.391033 5,000 356 363 -512
2019-01-21 21:32:03 GMT 57.005127 -2.389441 5,075 356 363 -512
2019-01-21 21:31:59 GMT 56.998093 -2.388286 5,100 356 363 -448
2019-01-21 21:31:51 GMT 56.981094 -2.385578 5,175 355 362 -512
2019-01-21 21:31:39 GMT 56.965073 -2.383175 5,250 357 363 -512
2019-01-21 21:31:29 GMT 56.948273 -2.381887 5,350 0 366 -320
2019-01-21 21:31:19 GMT 56.931759 -2.383059 5,375 4 365 -64
2019-01-21 21:31:09 GMT 56.914627 -2.385836 5,400 5 364 -384
2019-01-21 21:30:58 GMT 56.897232 -2.388754 5,475 5 363 -896
2019-01-21 21:30:52 GMT 56.886185 -2.390501 5,600 5 363 -1472
2019-01-21 21:30:48 GMT 56.880177 -2.391564 5,675 5 363 -1472
2019-01-21 21:30:40 GMT 56.865421 -2.394045 5,900 5 366 -1472
2019-01-21 21:30:37 GMT 56.861710 -2.394590 5,950 5 366 -1472
2019-01-21 21:30:31 GMT 56.851223 -2.396349 6,150 5 367 -1472
2019-01-21 21:30:28 GMT 56.846146 -2.397165 6,200 5 367 -1472
2019-01-21 21:30:20 GMT 56.829895 -2.399826 6,425 5 368 -1536
2019-01-21 21:30:17 GMT 56.828568 -2.400084 6,450 5 367 -1536
2019-01-21 21:30:10 GMT 56.814678 -2.402285 6,700 4 368 -1472
2019-01-21 21:30:07 GMT 56.811279 -2.402816 6,700 4 368 -1472
2019-01-21 21:30:00 GMT 56.799129 -2.404765 6,900 5 365 -1408
2019-01-21 21:29:57 GMT 56.793411 -2.405748 6,950 5 364 -1536
2019-01-21 21:29:52 GMT 56.785027 -2.407246 7,125 5 364 -1984
2019-01-21 21:29:48 GMT 56.778320 -2.408398 7,350 5 366 -2176
2019-01-21 21:29:45 GMT 56.773224 -2.409353 7,400 5 367 -2112
2019-01-21 21:29:38 GMT 56.760723 -2.411588 7,650 5 369 -2304
2019-01-21 21:29:34 GMT 56.755280 -2.412562 7,775 5 370 -2240
2019-01-21 21:29:28 GMT 56.744339 -2.414423 8,000 5 373 -1856
2019-01-21 21:29:25 GMT 56.739166 -2.415276 8,100 5 375 -1856
2019-01-21 21:29:20 GMT 56.729813 -2.416904 8,275 5 378 -1792
2019-01-21 21:29:17 GMT 56.725670 -2.417524 8,350 5 379 -1856
2019-01-21 21:29:14 GMT 56.721130 -2.418280 8,425 5 380 -1792
2019-01-21 21:29:10 GMT 56.711975 -2.419739 8,600 5 386 -1408
2019-01-21 21:29:07 GMT 56.707375 -2.420536 8,650 5 387 -1408
2019-01-21 21:29:04 GMT 56.703140 -2.421245 8,725 5 387 -1408
2019-01-21 21:28:59 GMT 56.692387 -2.422928 8,875 5 391 -1984
2019-01-21 21:28:56 GMT 56.688057 -2.423637 8,950 5 391 -2368
2019-01-21 21:28:53 GMT 56.683365 -2.424459 9,050 5 392 -2752
2019-01-21 21:28:50 GMT 56.677597 -2.425404 9,200 5 391 -3136
2019-01-21 21:28:46 GMT 56.670410 -2.426605 9,325 5 391 -3072
2019-01-21 21:28:43 GMT 56.665012 -2.427447 9,575 5 390 -2880
2019-01-21 21:28:37 GMT 56.652771 -2.429573 9,900 5 390 -2624
2019-01-21 21:28:33 GMT 56.646652 -2.430639 10,075 5 391 -2304
2019-01-21 21:28:29 GMT 56.639465 -2.431841 10,300 5 393 -2240
2019-01-21 21:28:26 GMT 56.634010 -2.432763 10,300 5 393 -2240
2019-01-21 21:28:22 GMT 56.627884 -2.433729 10,475 5 394 -2304
2019-01-21 21:28:17 GMT 56.616943 -2.435532 10,725 5 396 -2624
2019-01-21 21:28:14 GMT 56.611816 -2.436304 10,825 5 397 -2688
2019-01-21 21:28:11 GMT 56.607800 -2.437016 11,175 5 397 -2752
2019-01-21 21:28:07 GMT 56.599049 -2.438345 11,200 5 397 -2752
2019-01-21 21:28:04 GMT 56.592819 -2.439381 11,300 5 397 -2688
2019-01-21 21:28:01 GMT 56.589157 -2.439964 11,400 5 398 -2624
2019-01-21 21:27:55 GMT 56.577820 -2.441883 11,600 5 398 -2560
2019-01-21 21:27:51 GMT 56.570465 -2.443171 11,850 5 400 -2432
2019-01-21 21:27:46 GMT 56.560501 -2.444791 12,100 5 401 -2240
2019-01-21 21:27:43 GMT 56.555710 -2.445574 12,175 5 402 -2240
2019-01-21 21:27:39 GMT 56.549004 -2.446604 12,350 5 404 -2304
2019-01-21 21:27:36 GMT 56.540115 -2.448063 12,450 5 405 -2240
2019-01-21 21:27:33 GMT 56.536743 -2.448619 12,575 5 406 -2176
2019-01-21 21:27:29 GMT 56.523586 -2.450724 12,775 5 408 -2368
2019-01-21 21:27:26 GMT 56.523586 -2.450724 12,875 5 409 -2432
2019-01-21 21:27:23 GMT 56.517197 -2.451782 12,975 5 410 -2432
2019-01-21 21:27:16 GMT 56.503941 -2.453985 13,300 5 412 -2432
2019-01-21 21:27:13 GMT 56.497890 -2.455015 13,400 5 412 -2432
2019-01-21 21:27:09 GMT 56.489136 -2.456443 13,575 5 413 -2432
2019-01-21 21:27:05 GMT 56.484558 -2.457192 13,750 5 414 -2432
2019-01-21 21:27:02 GMT 56.478851 -2.458105 13,825 5 414 -2432
2019-01-21 21:26:58 GMT 56.463181 -2.460605 14,025 5 415 -2432
2019-01-21 21:26:55 GMT 56.463181 -2.460605 14,200 5 415 -2432
2019-01-21 21:26:52 GMT 56.458973 -2.461367 14,250 5 415 -2432
2019-01-21 21:26:48 GMT 56.450180 -2.462852 14,450 5 416 -2432
2019-01-21 21:26:45 GMT 56.445194 -2.463684 14,700 5 417 -2432
2019-01-21 21:26:42 GMT 56.439423 -2.464683 14,675 5 416 -2432
2019-01-21 21:26:38 GMT 56.432159 -2.466002 14,825 5 417 -2432
2019-01-21 21:26:35 GMT 56.425644 -2.467097 15,050 5 417 -2432
2019-01-21 21:26:32 GMT 56.419868 -2.468061 15,100 5 417 -2432
2019-01-21 21:26:28 GMT 56.414471 -2.469006 15,300 5 419 -2432
2019-01-21 21:26:25 GMT 56.406372 -2.470342 15,425 5 419 -2496
2019-01-21 21:26:22 GMT 56.400192 -2.471341 15,525 5 420 -2432
2019-01-21 21:26:17 GMT 56.390900 -2.472839 15,725 5 421 -2432
2019-01-21 21:26:14 GMT 56.385887 -2.473726 15,800 5 422 -2432
2019-01-21 21:26:11 GMT 56.380829 -2.474504 15,875 5 422 -2432
2019-01-21 21:26:08 GMT 56.367172 -2.476730 16,100 5 423 -2368
2019-01-21 21:26:05 GMT 56.367172 -2.476730 16,225 5 424 -2432
2019-01-21 21:26:01 GMT 56.360142 -2.477932 16,300 5 425 -2368
2019-01-21 21:25:57 GMT 56.353859 -2.478962 16,525 5 426 -2432
2019-01-21 21:25:54 GMT 56.347183 -2.480080 16,700 5 427 -2432
2019-01-21 21:25:51 GMT 56.340912 -2.481079 16,775 5 428 -2432
2019-01-21 21:25:48 GMT 56.335373 -2.481995 16,900 5 429 -2432
2019-01-21 21:25:44 GMT 56.326675 -2.483410 17,675 5 434 -2432
2019-01-21 21:25:41 GMT 56.320713 -2.484369 17,200 5 431 -2432
2019-01-21 21:25:36 GMT 56.310791 -2.485990 17,425 5 433 -2432
2019-01-21 21:25:33 GMT 56.304428 -2.487072 17,700 5 434 -2432
2019-01-21 21:25:30 GMT 56.299622 -2.487821 17,650 5 434 -2432
2019-01-21 21:25:26 GMT 56.290405 -2.489347 17,800 5 435 -2432
2019-01-21 21:25:23 GMT 56.284821 -2.490292 17,950 5 436 -2368
2019-01-21 21:25:17 GMT 56.266708 -2.493147 18,300 5 438 -2432
2019-01-21 21:25:13 GMT 56.263874 -2.493639 18,375 5 439 -2432
2019-01-21 21:25:09 GMT 56.257401 -2.494669 18,450 5 440 -2368
2019-01-21 21:25:06 GMT 56.248901 -2.495977 18,675 5 441 -2432
2019-01-21 21:25:03 GMT 56.245251 -2.496557 18,750 5 442 -2432
2019-01-21 21:25:00 GMT 56.237503 -2.497808 18,925 5 443 -2432
2019-01-21 21:24:55 GMT 56.227283 -2.499390 19,125 5 444 -2432
2019-01-21 21:24:52 GMT 56.216621 -2.501106 19,275 5 446 -2432
2019-01-21 21:24:49 GMT 56.216621 -2.501106 19,350 5 447 -2432
2019-01-21 21:24:42 GMT 56.203033 -2.503301 19,550 5 448 -2432
2019-01-21 21:24:39 GMT 56.195618 -2.504467 20,050 5 452 -2432
2019-01-21 21:24:36 GMT 56.188980 -2.505549 19,900 5 451 -2432
2019-01-21 21:24:33 GMT 56.182732 -2.506599 20,025 5 452 -2432
2019-01-21 21:24:29 GMT 56.174835 -2.507879 20,175 5 453 -2432
2019-01-21 21:24:26 GMT 56.166458 -2.509294 20,375 5 456 -2432
2019-01-21 21:24:23 GMT 56.161423 -2.510126 20,450 5 456 -2432
2019-01-21 21:24:20 GMT 56.155964 -2.511063 20,725 5 458 -2432
2019-01-21 21:24:17 GMT 56.148422 -2.512436 20,700 5 458 -2432
2019-01-21 21:24:13 GMT 56.140411 -2.513788 20,900 5 468 -2432
2019-01-21 21:24:09 GMT 56.134087 -2.514839 20,975 5 460 -2368
2019-01-21 21:24:06 GMT 56.126450 -2.516041 21,300 5 462 -2368
2019-01-21 21:24:03 GMT 56.119217 -2.517201 21,275 5 462 -2368
2019-01-21 21:24:00 GMT 56.114090 -2.517950 21,400 5 463 -2368
2019-01-21 21:23:57 GMT 56.105576 -2.519365 21,450 5 464 -2368
2019-01-21 21:23:54 GMT 56.101273 -2.520031 21,550 5 464 -2368
2019-01-21 21:23:50 GMT 56.092712 -2.521362 21,800 5 467 -2432
2019-01-21 21:23:47 GMT 56.075058 -2.524195 21,975 5 468 -2432
2019-01-21 21:23:43 GMT 56.075058 -2.524195 22,150 5 469 -2432
2019-01-21 21:23:40 GMT 56.070728 -2.524881 22,200 5 470 -2432
2019-01-21 21:23:37 GMT 56.062500 -2.526273 22,275 5 471 -2432
2019-01-21 21:23:34 GMT 56.052525 -2.527885 22,500 5 472 -2432
2019-01-21 21:23:28 GMT 56.044235 -2.529186 22,750 5 474 -2432
2019-01-21 21:23:25 GMT 56.038971 -2.530018 22,800 5 475 -2432
2019-01-21 21:23:22 GMT 56.031578 -2.531147 22,900 5 476 -2432
2019-01-21 21:23:19 GMT 56.015305 -2.533764 23,150 5 477 -2432
2019-01-21 21:23:16 GMT 56.015305 -2.533764 23,275 5 478 -2432
2019-01-21 21:23:12 GMT 56.009125 -2.534679 23,375 4 479 -2496
2019-01-21 21:23:09 GMT 56.002945 -2.535595 23,475 4 481 -2432
2019-01-21 21:23:06 GMT 55.995895 -2.536677 23,575 4 480 -2432
2019-01-21 21:23:03 GMT 55.990585 -2.537509 23,725 4 481 -2432
2019-01-21 21:23:00 GMT 55.983025 -2.538700 23,875 4 482 -2432
2019-01-21 21:22:57 GMT 55.969707 -2.540760 24,025 4 483 -2432
2019-01-21 21:22:54 GMT 55.969707 -2.540760 24,125 5 483 -2432
2019-01-21 21:22:49 GMT 55.959003 -2.542477 24,375 5 485 -2432
2019-01-21 21:22:46 GMT 55.951401 -2.543668 24,450 5 487 -2496
2019-01-21 21:22:43 GMT 55.946915 -2.544417 24,550 5 488 -2496
2019-01-21 21:22:40 GMT 55.939728 -2.545582 24,725 5 490 -2496
2019-01-21 21:22:37 GMT 55.930756 -2.547080 24,850 5 490 -2496
2019-01-21 21:22:33 GMT 55.923523 -2.548329 24,950 5 491 -2496
2019-01-21 21:22:29 GMT 55.910889 -2.550326 25,200 5 492 -2496
2019-01-21 21:22:26 GMT 55.908142 -2.550826 25,525 4 494 -2496
2019-01-21 21:22:23 GMT 55.900440 -2.552004 25,425 4 494 -2496
2019-01-21 21:22:20 GMT 55.892715 -2.553239 25,575 4 495 -2496
2019-01-21 21:22:17 GMT 55.879944 -2.555154 26,025 4 497 -2432
2019-01-21 21:22:14 GMT 55.879944 -2.555154 25,925 4 497 -2432
2019-01-21 21:22:11 GMT 55.872135 -2.556295 26,000 4 498 -2432
2019-01-21 21:22:08 GMT 55.863895 -2.557497 26,100 4 499 -2432
2019-01-21 21:22:05 GMT 55.857471 -2.558441 26,300 4 500 -2432
2019-01-21 21:22:02 GMT 55.852863 -2.559128 26,325 4 501 -2432
2019-01-21 21:21:59 GMT 55.845463 -2.560244 26,500 5 502 -2432
2019-01-21 21:21:56 GMT 55.837601 -2.561479 26,550 5 504 -2368
2019-01-21 21:21:53 GMT 55.829727 -2.562819 26,700 5 505 -2368
2019-01-21 21:21:50 GMT 55.816692 -2.564964 26,850 5 507 -2304
2019-01-21 21:21:44 GMT 55.809677 -2.566140 27,050 5 509 -2304
2019-01-21 21:21:41 GMT 55.804543 -2.566938 27,125 5 510 -2304
2019-01-21 21:21:37 GMT 55.790436 -2.569256 27,350 5 512 -2304
2019-01-21 21:21:33 GMT 55.785736 -2.570028 27,575 5 514 -2304
2019-01-21 21:21:30 GMT 55.776764 -2.571467 27,550 5 514 -2304
2019-01-21 21:21:27 GMT 55.768696 -2.572775 27,725 5 516 -2368
2019-01-21 21:21:21 GMT 55.755890 -2.574796 28,275 5 519 -2368
2019-01-21 21:21:18 GMT 55.748245 -2.576044 28,100 5 519 -2368
2019-01-21 21:21:14 GMT 55.739182 -2.577410 28,275 5 519 -2368
2019-01-21 21:21:11 GMT 55.730618 -2.578783 28,475 5 520 -2368
2019-01-21 21:21:08 GMT 55.724396 -2.579790 28,725 4 500 -3200
2019-01-21 21:21:05 GMT 55.718674 -2.580705 28,600 5 520 -2368
2019-01-21 21:21:02 GMT 55.710068 -2.582120 28,700 5 520 -2368
2019-01-21 21:20:59 GMT 55.701942 -2.583332 28,975 4 520 -2304
2019-01-21 21:20:56 GMT 55.693329 -2.584705 29,075 4 520 -2304
2019-01-21 21:20:53 GMT 55.688534 -2.585478 29,150 4 520 -2304
2019-01-21 21:20:50 GMT 55.683243 -2.586282 29,225 4 520 -2304
2019-01-21 21:20:47 GMT 55.675125 -2.587538 29,300 4 520 -2304
2019-01-21 21:20:43 GMT 55.665539 -2.588997 32,075 5 520 -2368
2019-01-21 21:20:40 GMT 55.657856 -2.590199 29,650 5 522 -2304
2019-01-21 21:20:37 GMT 55.650650 -2.591275 29,775 5 522 -2304
2019-01-21 21:20:34 GMT 55.643471 -2.592430 29,875 5 522 -2304
2019-01-21 21:20:31 GMT 55.634811 -2.593803 30,025 5 522 -2304
2019-01-21 21:20:28 GMT 55.628586 -2.594771 30,150 5 522 -2304
2019-01-21 21:20:25 GMT 55.622337 -2.595778 30,250 5 521 -2304
2019-01-21 21:20:22 GMT 55.615173 -2.596935 30,375 5 520 -2368
2019-01-21 21:20:19 GMT 55.607998 -2.598095 30,550 5 520 -2368
2019-01-21 21:20:16 GMT 55.598465 -2.599598 30,675 5 519 -2368
2019-01-21 21:20:12 GMT 55.590820 -2.600842 30,825 5 518 -2432
2019-01-21 21:20:09 GMT 55.581757 -2.602262 30,950 5 517 -2432
2019-01-21 21:20:06 GMT 55.577042 -2.603011 31,000 5 516 -2432
2019-01-21 21:20:03 GMT 55.568527 -2.604426 31,275 5 513 -2432
2019-01-21 21:19:59 GMT 55.558182 -2.606090 31,350 5 511 -2368
2019-01-21 21:19:56 GMT 55.552551 -2.606922 31,450 5 509 -2368
2019-01-21 21:19:53 GMT 55.543671 -2.608337 31,725 4 505 -2304
2019-01-21 21:19:50 GMT 55.532089 -2.610085 31,875 4 502 -2752
2019-01-21 21:19:47 GMT 55.532089 -2.610085 31,925 4 502 -2880
2019-01-21 21:19:44 GMT 55.522808 -2.611485 32,050 4 501 -3008
2019-01-21 21:19:41 GMT 55.519592 -2.612000 32,275 4 500 -3264
2019-01-21 21:19:37 GMT 55.509495 -2.613544 32,450 5 498 -3648
2019-01-21 21:19:34 GMT 55.503487 -2.614489 32,725 4 494 -3968
2019-01-21 21:19:31 GMT 55.495762 -2.615690 32,700 5 495 -4032
2019-01-21 21:19:28 GMT 55.488033 -2.616892 32,900 4 493 -3584
2019-01-21 21:19:25 GMT 55.480305 -2.618093 33,150 5 492 -2496
2019-01-21 21:19:21 GMT 55.473038 -2.619241 33,325 5 492 -2496
2019-01-21 21:19:17 GMT 55.463127 -2.620754 33,800 5 492 -64
2019-01-21 21:19:14 GMT 55.455414 -2.621987 33,925 5 492 -128
2019-01-21 21:19:11 GMT 55.452255 -2.622486 33,700 5 491 -1536
2019-01-21 21:19:08 GMT 55.441853 -2.624151 33,925 5 492 -448
2019-01-21 21:19:04 GMT 55.434174 -2.625329 33,875 5 491 -512
2019-01-21 21:19:01 GMT 55.428772 -2.626149 33,950 5 492 -64
2019-01-21 21:18:58 GMT 55.418343 -2.627730 33,950 5 492 0
2019-01-21 21:18:55 GMT 55.407028 -2.629529 33,975 5 492 -64
2019-01-21 21:18:52 GMT 55.401119 -2.630477 33,975 5 492 -64
2019-01-21 21:18:46 GMT 55.392975 -2.631710 33,975 5 492 -64
2019-01-21 21:18:43 GMT 55.386154 -2.632760 33,975 5 492 0
2019-01-21 21:18:40 GMT 55.381195 -2.633556 33,975 5 492 0
2019-01-21 21:18:37 GMT 55.373932 -2.634721 33,975 5 492 0
2019-01-21 21:18:34 GMT 55.364857 -2.636136 33,975 5 492 0
2019-01-21 21:18:31 GMT 55.360340 -2.636802 33,975 5 491 -64
2019-01-21 21:18:28 GMT 55.346329 -2.638981 33,975 5 491 -64
2019-01-21 21:18:25 GMT 55.346329 -2.638981 34,000 4 491 -128
2019-01-21 21:18:22 GMT 55.337265 -2.640354 33,975 4 491 -64
2019-01-21 21:18:19 GMT 55.332317 -2.641130 34,000 4 491 -64
2019-01-21 21:18:15 GMT 55.323715 -2.642373 34,000 4 490 64
2019-01-21 21:18:12 GMT 55.308807 -2.644626 34,000 5 490 128
2019-01-21 21:18:08 GMT 55.300709 -2.645874 34,000 5 490 128
2019-01-21 21:18:05 GMT 55.300709 -2.645874 33,975 5 490 128
2019-01-21 21:18:02 GMT 55.294376 -2.646873 33,975 5 490 64
2019-01-21 21:17:59 GMT 55.287159 -2.647955 33,975 5 491 64
2019-01-21 21:17:55 GMT 55.276314 -2.649703 33,975 5 491 -64
2019-01-21 21:17:52 GMT 55.271797 -2.650368 33,975 4 491 -192
2019-01-21 21:17:49 GMT 55.259136 -2.652283 33,975 4 491 -128
2019-01-21 21:17:46 GMT 55.251873 -2.653365 34,000 4 491 -128
2019-01-21 21:17:43 GMT 55.251873 -2.653365 34,000 4 490 -128
2019-01-21 21:17:40 GMT 55.245117 -2.654410 34,000 4 490 -64
2019-01-21 21:17:37 GMT 55.236977 -2.655612 34,000 4 490 -64
2019-01-21 21:17:34 GMT 55.229782 -2.656672 34,000 4 490 -64
2019-01-21 21:17:31 GMT 55.215317 -2.658853 34,025 5 490 -64
2019-01-21 21:17:28 GMT 55.215317 -2.658853 34,000 5 490 0
2019-01-21 21:17:25 GMT 55.210831 -2.659580 34,000 5 490 0
2019-01-21 21:17:22 GMT 55.204514 -2.660549 34,000 5 490 0
2019-01-21 21:17:19 GMT 55.197281 -2.661680 34,000 5 490 0
2019-01-21 21:17:16 GMT 55.188263 -2.663134 34,000 5 491 0
2019-01-21 21:17:12 GMT 55.181946 -2.664104 34,000 5 491 64
2019-01-21 21:17:09 GMT 55.175201 -2.665267 34,000 5 491 64
2019-01-21 21:17:06 GMT 55.166172 -2.666681 34,000 5 491 0
2019-01-21 21:17:03 GMT 55.153557 -2.668679 34,000 5 490 0
2019-01-21 21:17:00 GMT 55.153557 -2.668679 34,000 5 490 0
2019-01-21 21:16:57 GMT 55.145409 -2.669927 34,000 4 490 0
2019-01-21 21:16:54 GMT 55.133213 -2.671592 34,000 3 489 0
2019-01-21 21:16:51 GMT 55.133213 -2.671592 34,000 3 489 0
2019-01-21 21:16:47 GMT 55.123760 -2.672508 34,000 2 489 0
2019-01-21 21:16:44 GMT 55.118362 -2.672924 34,000 1 488 0
2019-01-21 21:16:41 GMT 55.112961 -2.673173 34,000 0 488 0
2019-01-21 21:16:38 GMT 55.104816 -2.673423 34,000 0 488 64
2019-01-21 21:16:35 GMT 55.097645 -2.673423 34,000 0 487 64
2019-01-21 21:16:32 GMT 55.083710 -2.672990 34,000 359 487 64
2019-01-21 21:16:29 GMT 55.083710 -2.672990 33,975 358 486 64
2019-01-21 21:16:26 GMT 55.076977 -2.672591 33,975 358 486 64
2019-01-21 21:16:22 GMT 55.068924 -2.671842 33,975 357 485 64
2019-01-21 21:16:19 GMT 55.059940 -2.670926 33,975 356 486 64
2019-01-21 21:16:16 GMT 55.055470 -2.670344 33,975 355 485 64
2019-01-21 21:16:13 GMT 55.048782 -2.669274 33,975 352 483 0
2019-01-21 21:16:10 GMT 55.042110 -2.668180 33,975 352 483 0
2019-01-21 21:16:07 GMT 55.034988 -2.666681 33,975 345 478 -128
2019-01-21 21:16:03 GMT 55.024418 -2.663768 33,975 347 480 0
2019-01-21 21:16:00 GMT 55.020042 -2.662354 33,975 349 481 0
2019-01-21 21:15:57 GMT 55.013535 -2.659984 33,975 348 481 0
2019-01-21 21:15:54 GMT 55.005798 -2.656672 33,975 346 479 64
2019-01-21 21:15:50 GMT 54.998932 -2.653521 33,975 345 478 64
2019-01-21 21:15:47 GMT 54.992531 -2.650452 33,950 345 479 0
2019-01-21 21:15:43 GMT 54.983597 -2.646170 33,950 345 479 -64
2019-01-21 21:15:40 GMT 54.977215 -2.643127 33,950 345 479 -64
2019-01-21 21:15:37 GMT 54.970779 -2.640031 33,950 345 479 -64
2019-01-21 21:15:34 GMT 54.962692 -2.636136 33,975 345 480 -128
2019-01-21 21:15:31 GMT 54.958408 -2.634139 33,975 345 480 -128
2019-01-21 21:15:28 GMT 54.952011 -2.631064 33,975 345 480 -128
2019-01-21 21:15:25 GMT 54.945190 -2.627833 33,975 345 480 -128
2019-01-21 21:15:22 GMT 54.937088 -2.623985 33,975 345 478 -128
2019-01-21 21:15:19 GMT 54.933243 -2.622178 33,975 345 478 -64
2019-01-21 21:15:16 GMT 54.926006 -2.618741 33,975 345 478 -64
2019-01-21 21:15:13 GMT 54.920002 -2.615911 33,975 345 478 -64
2019-01-21 21:15:10 GMT 54.911911 -2.612080 33,975 345 478 -64
2019-01-21 21:15:07 GMT 54.905090 -2.608930 33,975 345 478 -128
2019-01-21 21:15:03 GMT 54.898270 -2.605699 34,000 345 478 -128
2019-01-21 21:15:00 GMT 54.891449 -2.602467 34,000 345 478 -128
2019-01-21 21:14:56 GMT 54.883366 -2.598600 34,000 345 479 -64
2019-01-21 21:14:53 GMT 54.876522 -2.595354 34,000 345 479 -64
2019-01-21 21:14:50 GMT 54.868004 -2.591275 34,000 345 479 -64
2019-01-21 21:14:47 GMT 54.858601 -2.586864 34,000 345 479 64
2019-01-21 21:14:41 GMT 54.849655 -2.582595 34,000 345 480 -64
2019-01-21 21:14:38 GMT 54.844959 -2.580372 34,000 345 479 0
2019-01-21 21:14:35 GMT 54.839001 -2.577542 33,975 345 480 -64
2019-01-21 21:14:32 GMT 54.832157 -2.574296 34,000 345 479 -64
2019-01-21 21:14:29 GMT 54.825714 -2.571285 34,000 345 480 -64
2019-01-21 21:14:26 GMT 54.819717 -2.568458 34,000 345 480 -128
2019-01-21 21:14:23 GMT 54.811157 -2.564500 34,000 346 480 -64
2019-01-21 21:14:20 GMT 54.806900 -2.562561 34,000 345 480 -128
2019-01-21 21:14:17 GMT 54.799210 -2.558926 34,000 345 480 -128
2019-01-21 21:14:14 GMT 54.794498 -2.556735 34,025 345 480 -128
2019-01-21 21:14:11 GMT 54.788040 -2.553756 34,025 345 480 -128
2019-01-21 21:14:08 GMT 54.780811 -2.550326 34,025 345 480 -128
2019-01-21 21:14:05 GMT 54.774353 -2.547293 34,025 345 481 -64
2019-01-21 21:14:02 GMT 54.767532 -2.544062 34,025 345 481 0
2019-01-21 21:13:59 GMT 54.753391 -2.537342 34,025 345 481 0
2019-01-21 21:13:55 GMT 54.753391 -2.537342 34,025 345 482 0
2019-01-21 21:13:52 GMT 54.745239 -2.533480 34,025 345 482 0
2019-01-21 21:13:49 GMT 54.740112 -2.531056 34,025 345 482 0
2019-01-21 21:13:46 GMT 54.733654 -2.528021 34,025 345 481 0
2019-01-21 21:13:43 GMT 54.727249 -2.525078 34,025 345 481 0
2019-01-21 21:13:40 GMT 54.714340 -2.519020 34,025 345 482 64
2019-01-21 21:13:37 GMT 54.707474 -2.515869 34,025 345 482 64
2019-01-21 21:13:34 GMT 54.707474 -2.515869 34,025 345 482 64
2019-01-21 21:13:31 GMT 54.699738 -2.512234 34,025 345 482 128
2019-01-21 21:13:28 GMT 54.695015 -2.510043 34,000 345 482 128
2019-01-21 21:13:25 GMT 54.689011 -2.507213 34,000 345 482 128
2019-01-21 21:13:22 GMT 54.679962 -2.503025 34,000 345 482 128
2019-01-21 21:13:19 GMT 54.676113 -2.501221 34,000 345 482 128
2019-01-21 21:13:16 GMT 54.667923 -2.497370 33,975 345 482 128
2019-01-21 21:13:13 GMT 54.663620 -2.495351 33,975 345 482 64
2019-01-21 21:13:10 GMT 54.655930 -2.491715 33,975 345 482 64
2019-01-21 21:13:07 GMT 54.647766 -2.487821 33,975 345 483 0
2019-01-21 21:13:04 GMT 54.644321 -2.486156 33,975 345 483 0
2019-01-21 21:13:01 GMT 54.635708 -2.482078 33,975 345 483 0
2019-01-21 21:12:58 GMT 54.621552 -2.475317 34,000 345 483 0
2019-01-21 21:12:54 GMT 54.621552 -2.475317 33,975 345 483 0
2019-01-21 21:12:51 GMT 54.615086 -2.472257 34,000 345 483 0
2019-01-21 21:12:48 GMT 54.609467 -2.469581 33,975 345 484 0
2019-01-21 21:12:45 GMT 54.602142 -2.466098 33,975 345 484 -64
2019-01-21 21:12:42 GMT 54.596977 -2.463684 33,975 345 483 -64
2019-01-21 21:12:39 GMT 54.588364 -2.459689 33,975 345 483 -64
2019-01-21 21:12:36 GMT 54.584084 -2.457692 34,000 345 484 -128
2019-01-21 21:12:33 GMT 54.576736 -2.454233 34,000 346 484 -128
2019-01-21 21:12:30 GMT 54.570255 -2.451283 34,000 343 482 0
2019-01-21 21:12:27 GMT 54.562481 -2.447787 34,000 346 484 -64
2019-01-21 21:12:24 GMT 54.556000 -2.444781 34,025 346 484 0
2019-01-21 21:12:21 GMT 54.551262 -2.442627 34,000 345 483 0
2019-01-21 21:12:18 GMT 54.543961 -2.439207 34,025 344 482 0
2019-01-21 21:12:15 GMT 54.536224 -2.435330 34,025 344 482 0
2019-01-21 21:12:12 GMT 54.529846 -2.432057 34,000 343 482 0
2019-01-21 21:12:09 GMT 54.516724 -2.424828 34,000 342 480 -64
2019-01-21 21:12:06 GMT 54.516724 -2.424828 34,000 342 480 -64
2019-01-21 21:12:02 GMT 54.509171 -2.420466 34,000 341 480 -64
2019-01-21 21:11:59 GMT 54.504959 -2.417881 34,000 341 480 -128
2019-01-21 21:11:55 GMT 54.496239 -2.412415 34,025 340 478 -128
2019-01-21 21:11:52 GMT 54.490463 -2.408669 34,025 340 479 -128
2019-01-21 21:11:49 GMT 54.474869 -2.398099 34,050 338 477 -64
2019-01-21 21:11:46 GMT 54.474869 -2.398099 34,050 338 477 -64
2019-01-21 21:11:43 GMT 54.469982 -2.394603 34,050 338 477 -64
2019-01-21 21:11:40 GMT 54.462627 -2.389443 34,050 338 477 -64
2019-01-21 21:11:37 GMT 54.459000 -2.386780 34,050 338 477 -64
2019-01-21 21:11:34 GMT 54.452061 -2.381952 34,050 338 478 -64
2019-01-21 21:11:31 GMT 54.445541 -2.377292 34,050 338 478 -64
2019-01-21 21:11:28 GMT 54.442284 -2.375044 34,050 338 478 -64
2019-01-21 21:11:25 GMT 54.432907 -2.368442 34,050 338 478 -64
2019-01-21 21:11:22 GMT 54.421463 -2.360364 34,050 338 478 -64
2019-01-21 21:11:19 GMT 54.421463 -2.360364 34,050 338 478 -64
2019-01-21 21:11:16 GMT 54.410442 -2.352656 34,050 338 478 0
2019-01-21 21:11:13 GMT 54.410442 -2.352656 34,050 338 478 0
2019-01-21 21:11:09 GMT 54.401825 -2.346631 34,050 338 478 64
2019-01-21 21:11:06 GMT 54.396103 -2.342673 34,050 338 478 64
2019-01-21 21:11:03 GMT 54.379807 -2.331202 34,025 338 478 64
2019-01-21 21:10:59 GMT 54.379807 -2.331202 34,025 338 478 64
2019-01-21 21:10:56 GMT 54.376133 -2.328602 34,025 338 478 64
2019-01-21 21:10:53 GMT 54.369186 -2.323689 34,025 338 478 64
2019-01-21 21:10:50 GMT 54.362259 -2.318781 34,025 338 478 64
2019-01-21 21:10:47 GMT 54.358212 -2.315868 34,025 338 477 0
2019-01-21 21:10:44 GMT 54.348816 -2.309229 34,025 338 477 0
2019-01-21 21:10:40 GMT 54.343918 -2.305756 34,025 338 477 0
2019-01-21 21:10:37 GMT 54.334167 -2.298889 34,025 338 476 -64
2019-01-21 21:10:34 GMT 54.329720 -2.295643 34,025 338 476 0
2019-01-21 21:10:30 GMT 54.322411 -2.290483 34,025 338 476 0
2019-01-21 21:10:27 GMT 54.315102 -2.285239 34,025 338 476 0
2019-01-21 21:10:24 GMT 54.311054 -2.282410 34,025 338 476 0
2019-01-21 21:10:21 GMT 54.304138 -2.277482 34,025 338 476 0
2019-01-21 21:10:18 GMT 54.296036 -2.271746 34,025 338 476 0
2019-01-21 21:10:15 GMT 54.293179 -2.269759 34,025 338 476 -128
2019-01-21 21:10:12 GMT 54.286659 -2.265181 34,025 338 476 -64
2019-01-21 21:10:09 GMT 54.278561 -2.259521 34,025 338 476 -128
2019-01-21 21:10:06 GMT 54.271637 -2.254708 34,025 338 476 -128
2019-01-21 21:10:02 GMT 54.265526 -2.250420 34,025 338 475 -128
2019-01-21 21:09:59 GMT 54.260681 -2.247027 34,025 338 475 -64
2019-01-21 21:09:56 GMT 54.252537 -2.241292 34,025 338 475 0
2019-01-21 21:09:53 GMT 54.247284 -2.237601 34,025 338 474 0
2019-01-21 21:09:50 GMT 54.241608 -2.233599 34,025 338 474 64
2019-01-21 21:09:47 GMT 54.235107 -2.229048 34,025 338 474 64
2019-01-21 21:09:44 GMT 54.227829 -2.223947 34,025 338 475 64
2019-01-21 21:09:41 GMT 54.222153 -2.219945 34,025 338 475 64
2019-01-21 21:09:38 GMT 54.216877 -2.216169 34,025 338 475 64
2019-01-21 21:09:35 GMT 54.208374 -2.210214 34,000 338 475 64
2019-01-21 21:09:32 GMT 54.205124 -2.207860 34,000 338 475 64
2019-01-21 21:09:29 GMT 54.199097 -2.203567 34,000 338 475 -64
2019-01-21 21:09:26 GMT 54.192215 -2.198757 34,000 338 475 -64
2019-01-21 21:09:23 GMT 54.185314 -2.193873 34,025 338 474 -64
2019-01-21 21:09:20 GMT 54.179634 -2.189834 34,025 338 474 -64
2019-01-21 21:09:17 GMT 54.173164 -2.185229 34,025 338 474 0
2019-01-21 21:09:14 GMT 54.168324 -2.181836 34,025 338 473 0
2019-01-21 21:09:11 GMT 54.162277 -2.177569 34,000 338 473 128
2019-01-21 21:09:08 GMT 54.154999 -2.172468 34,000 338 473 128
2019-01-21 21:09:05 GMT 54.149368 -2.168466 33,975 338 473 128
2019-01-21 21:09:02 GMT 54.142914 -2.163914 34,000 338 472 192
2019-01-21 21:08:59 GMT 54.137238 -2.159991 34,000 338 472 128
2019-01-21 21:08:56 GMT 54.124752 -2.151220 33,975 338 473 128
2019-01-21 21:08:53 GMT 54.124752 -2.151220 33,975 338 473 64
2019-01-21 21:08:50 GMT 54.120701 -2.148393 33,975 338 472 64
2019-01-21 21:08:47 GMT 54.113022 -2.143040 33,975 338 472 0
2019-01-21 21:08:44 GMT 54.107346 -2.139117 33,975 338 472 0
2019-01-21 21:08:41 GMT 54.101715 -2.135193 33,975 338 472 0
2019-01-21 21:08:38 GMT 54.095657 -2.131025 33,975 338 471 0
2019-01-21 21:08:35 GMT 54.083176 -2.122323 33,975 338 470 -64
2019-01-21 21:08:32 GMT 54.083176 -2.122323 33,975 338 470 -64
2019-01-21 21:08:29 GMT 54.077545 -2.118399 33,975 338 469 -64
2019-01-21 21:08:26 GMT 54.069534 -2.112828 33,975 338 470 -64
2019-01-21 21:08:23 GMT 54.063488 -2.108648 33,975 338 469 -64
2019-01-21 21:08:20 GMT 54.059483 -2.105901 33,975 338 470 -64
2019-01-21 21:08:17 GMT 54.047058 -2.097212 34,000 338 468 -64
2019-01-21 21:08:14 GMT 54.047058 -2.097212 34,000 337 468 -64
2019-01-21 21:08:11 GMT 54.041889 -2.093380 34,000 337 467 0
2019-01-21 21:08:08 GMT 54.034019 -2.087483 34,000 337 468 0
2019-01-21 21:08:05 GMT 54.028931 -2.083479 34,000 335 467 0
2019-01-21 21:08:02 GMT 54.023083 -2.078839 33,975 335 466 -64
2019-01-21 21:07:59 GMT 54.018036 -2.074690 34,000 335 466 -64
2019-01-21 21:07:53 GMT 54.006042 -2.064783 33,975 334 465 64
2019-01-21 21:07:50 GMT 53.998360 -2.058321 33,975 334 465 64
2019-01-21 21:07:47 GMT 53.994873 -2.055464 33,975 334 465 64
2019-01-21 21:07:43 GMT 53.985233 -2.047496 33,975 334 465 0
2019-01-21 21:07:40 GMT 53.979446 -2.042672 33,975 334 465 0
2019-01-21 21:07:37 GMT 53.975555 -2.039455 33,975 335 465 0
2019-01-21 21:07:33 GMT 53.967449 -2.032794 33,975 335 465 0
2019-01-21 21:07:30 GMT 53.962051 -2.028351 33,975 335 465 0
2019-01-21 21:07:27 GMT 53.956238 -2.023603 33,975 335 465 0
2019-01-21 21:07:24 GMT 53.943100 -2.012852 33,975 334 465 0
2019-01-21 21:07:21 GMT 53.943100 -2.012852 33,975 335 465 0
2019-01-21 21:07:18 GMT 53.937698 -2.008379 33,975 335 464 0
2019-01-21 21:07:12 GMT 53.927277 -1.999835 33,975 334 465 0
2019-01-21 21:07:09 GMT 53.920341 -1.994099 33,975 334 465 0
2019-01-21 21:07:06 GMT 53.915314 -1.989938 33,975 334 465 0
2019-01-21 21:07:03 GMT 53.909180 -1.984837 33,975 334 465 -64
2019-01-21 21:07:00 GMT 53.903778 -1.980364 33,975 334 465 -64
2019-01-21 21:06:57 GMT 53.897995 -1.975600 33,975 334 465 -64
2019-01-21 21:06:54 GMT 53.894131 -1.972450 33,975 334 464 -64
2019-01-21 21:06:51 GMT 53.886795 -1.966396 33,975 334 464 0
2019-01-21 21:06:48 GMT 53.875648 -1.957182 33,975 335 464 0
2019-01-21 21:06:45 GMT 53.875648 -1.957182 33,975 335 464 0
2019-01-21 21:06:42 GMT 53.867924 -1.950881 33,975 335 464 0
2019-01-21 21:06:39 GMT 53.862122 -1.946150 33,975 335 464 0
2019-01-21 21:06:36 GMT 53.851318 -1.937360 33,975 335 464 -64
2019-01-21 21:06:33 GMT 53.851318 -1.937360 33,975 335 464 -64
2019-01-21 21:06:30 GMT 53.845531 -1.932624 33,975 335 464 -64
2019-01-21 21:06:27 GMT 53.840874 -1.928828 33,975 335 464 -64
2019-01-21 21:06:24 GMT 53.835892 -1.924726 33,975 335 464 -64
2019-01-21 21:06:21 GMT 53.821243 -1.912720 33,975 335 464 -64
2019-01-21 21:06:18 GMT 53.821243 -1.912720 33,975 335 464 -64
2019-01-21 21:06:15 GMT 53.818130 -1.910209 33,975 335 464 -64
2019-01-21 21:06:12 GMT 53.810059 -1.903543 33,975 335 463 -64
2019-01-21 21:06:09 GMT 53.805401 -1.899746 33,975 335 463 -64
2019-01-21 21:06:06 GMT 53.800049 -1.895303 33,975 335 463 -64
2019-01-21 21:06:03 GMT 53.794235 -1.890590 33,975 335 463 -64
2019-01-21 21:06:00 GMT 53.786922 -1.884559 34,000 335 463 0
2019-01-21 21:05:57 GMT 53.781567 -1.880197 33,975 335 463 0
2019-01-21 21:05:54 GMT 53.775009 -1.874817 33,975 335 464 0
2019-01-21 21:05:51 GMT 53.769608 -1.870344 33,975 335 463 -64
2019-01-21 21:05:48 GMT 53.765762 -1.867205 34,000 335 460 64
2019-01-21 21:05:45 GMT 53.758430 -1.861213 33,975 335 463 -64
2019-01-21 21:05:42 GMT 53.753033 -1.856770 33,975 335 463 -64
2019-01-21 21:05:39 GMT 53.747269 -1.852060 34,000 335 464 -64
2019-01-21 21:05:36 GMT 53.742279 -1.847965 34,000 335 464 -64
2019-01-21 21:05:33 GMT 53.736877 -1.843522 34,000 335 464 -64
2019-01-21 21:05:30 GMT 53.729149 -1.837302 34,000 335 464 0
2019-01-21 21:05:27 GMT 53.724930 -1.833775 34,000 335 464 -64
2019-01-21 21:05:24 GMT 53.718349 -1.828497 34,000 335 464 0
2019-01-21 21:05:21 GMT 53.712204 -1.823488 34,000 335 464 0
2019-01-21 21:05:18 GMT 53.707947 -1.820042 34,000 335 464 0
2019-01-21 21:05:15 GMT 53.695213 -1.809674 34,000 335 464 -64
2019-01-21 21:05:12 GMT 53.695213 -1.809674 34,000 335 464 -64
2019-01-21 21:05:09 GMT 53.689068 -1.804666 34,000 335 464 -64
2019-01-21 21:05:06 GMT 53.685204 -1.801515 34,000 335 464 0
2019-01-21 21:05:03 GMT 53.677479 -1.795214 34,000 335 464 0
2019-01-21 21:04:57 GMT 53.667847 -1.787397 34,000 335 463 0
2019-01-21 21:04:54 GMT 53.662445 -1.783003 34,000 335 463 0
2019-01-21 21:04:51 GMT 53.655487 -1.777352 34,000 335 463 0
2019-01-21 21:04:48 GMT 53.648529 -1.771702 34,000 335 464 0
2019-01-21 21:04:45 GMT 53.636604 -1.762013 34,000 335 464 0
2019-01-21 21:04:42 GMT 53.636604 -1.762013 34,000 335 464 0
2019-01-21 21:04:39 GMT 53.632740 -1.758863 34,000 335 464 0
2019-01-21 21:04:36 GMT 53.625805 -1.753208 34,000 335 464 64
2019-01-21 21:04:33 GMT 53.620403 -1.748765 34,000 335 464 0
2019-01-21 21:04:30 GMT 53.614212 -1.743756 34,000 335 462 -64
2019-01-21 21:04:27 GMT 53.608429 -1.739057 34,000 335 464 0
2019-01-21 21:04:24 GMT 53.603806 -1.735369 34,000 335 464 0
2019-01-21 21:04:20 GMT 53.589584 -1.723803 34,000 335 462 -64
2019-01-21 21:04:17 GMT 53.584187 -1.719441 34,000 335 462 -64
2019-01-21 21:04:14 GMT 53.584187 -1.719441 34,000 335 462 -64
2019-01-21 21:04:10 GMT 53.576111 -1.712847 34,000 335 462 -64
2019-01-21 21:04:07 GMT 53.564529 -1.703509 34,000 335 461 -64
2019-01-21 21:04:04 GMT 53.564529 -1.703509 34,000 335 462 -64
2019-01-21 21:04:01 GMT 53.557617 -1.697937 34,000 335 462 -64
2019-01-21 21:03:58 GMT 53.553772 -1.694877 34,000 335 462 -64
2019-01-21 21:03:55 GMT 53.539948 -1.683655 34,000 335 461 -64
2019-01-21 21:03:52 GMT 53.539948 -1.683655 34,000 335 461 -64
2019-01-21 21:03:49 GMT 53.534935 -1.679616 34,000 335 461 -64
2019-01-21 21:03:46 GMT 53.529579 -1.675334 34,025 335 461 -64
2019-01-21 21:03:43 GMT 53.523834 -1.670628 34,000 335 461 -64
2019-01-21 21:03:40 GMT 53.518082 -1.666044 34,000 335 461 -64
2019-01-21 21:03:37 GMT 53.513077 -1.661996 34,025 335 461 0
2019-01-21 21:03:34 GMT 53.507721 -1.657680 34,025 335 461 0
2019-01-21 21:03:31 GMT 53.500809 -1.652108 34,025 335 461 0
2019-01-21 21:03:28 GMT 53.490429 -1.643749 34,000 335 461 64
2019-01-21 21:03:22 GMT 53.485077 -1.639386 34,000 335 461 64
2019-01-21 21:03:19 GMT 53.478931 -1.634459 34,000 335 460 64
2019-01-21 21:03:16 GMT 53.473160 -1.629822 34,000 335 461 64
2019-01-21 21:03:13 GMT 53.466595 -1.624603 34,000 335 462 64
2019-01-21 21:03:10 GMT 53.459705 -1.619029 34,000 335 462 128
2019-01-21 21:03:07 GMT 53.453560 -1.614182 34,000 335 460 128
2019-01-21 21:03:04 GMT 53.448952 -1.610466 33,975 335 460 64
2019-01-21 21:03:01 GMT 53.442017 -1.604973 33,975 335 460 0
2019-01-21 21:02:58 GMT 53.438198 -1.601904 33,975 335 459 -64
2019-01-21 21:02:55 GMT 53.430908 -1.596157 33,975 335 458 -192
2019-01-21 21:02:52 GMT 53.426701 -1.592775 34,000 335 458 -192
2019-01-21 21:02:49 GMT 53.419113 -1.586636 34,000 335 456 -128
2019-01-21 21:02:46 GMT 53.413803 -1.582354 34,025 335 454 0
2019-01-21 21:02:43 GMT 53.408112 -1.577794 34,025 335 453 64
2019-01-21 21:02:40 GMT 53.404358 -1.574733 34,025 335 452 128
2019-01-21 21:02:37 GMT 53.398724 -1.570156 34,000 335 449 -64
2019-01-21 21:02:34 GMT 53.393143 -1.565630 33,975 335 449 -64
2019-01-21 21:02:31 GMT 53.387505 -1.561109 34,000 335 449 -64
2019-01-21 21:02:28 GMT 53.380798 -1.555616 34,000 335 448 -64
2019-01-21 21:02:24 GMT 53.367393 -1.544791 34,000 335 448 64
2019-01-21 21:02:21 GMT 53.367393 -1.544791 34,000 335 447 64
2019-01-21 21:02:18 GMT 53.362179 -1.540590 34,000 335 447 64
2019-01-21 21:02:15 GMT 53.356220 -1.535824 34,000 335 446 -128
2019-01-21 21:02:12 GMT 53.351051 -1.531623 34,025 335 447 -64
2019-01-21 21:02:09 GMT 53.338760 -1.521763 34,000 335 445 -64
2019-01-21 21:02:06 GMT 53.338760 -1.521763 34,000 335 446 -192
2019-01-21 21:02:03 GMT 53.335411 -1.519102 34,000 335 445 -64
2019-01-21 21:02:00 GMT 53.329102 -1.514073 34,025 335 446 -192
2019-01-21 21:01:57 GMT 53.323540 -1.509651 34,025 335 445 -128
2019-01-21 21:01:54 GMT 53.313110 -1.501411 34,050 335 445 -64
2019-01-21 21:01:51 GMT 53.305298 -1.495239 34,025 335 445 64
2019-01-21 21:01:48 GMT 53.305298 -1.495239 34,025 335 445 64
2019-01-21 21:01:45 GMT 53.301193 -1.492040 34,025 335 445 128
2019-01-21 21:01:42 GMT 53.295982 -1.487920 34,025 335 446 128
2019-01-21 21:01:39 GMT 53.290768 -1.483720 34,000 335 449 128
2019-01-21 21:01:36 GMT 53.285156 -1.479309 34,000 335 449 128
2019-01-21 21:01:33 GMT 53.277313 -1.473057 33,975 335 450 192
2019-01-21 21:01:30 GMT 53.273544 -1.470068 33,975 335 451 256
2019-01-21 21:01:27 GMT 53.265656 -1.463771 33,975 335 454 128
2019-01-21 21:01:24 GMT 53.262230 -1.461101 33,950 335 454 64
2019-01-21 21:01:21 GMT 53.255432 -1.455688 33,950 335 454 192
2019-01-21 21:01:18 GMT 53.249336 -1.450842 33,950 335 456 512
2019-01-21 21:01:15 GMT 53.244030 -1.446641 33,925 335 456 704
2019-01-21 21:01:12 GMT 53.239838 -1.443368 33,900 335 456 832
2019-01-21 21:01:09 GMT 53.227268 -1.433312 33,825 335 456 896
2019-01-21 21:01:06 GMT 53.227268 -1.433312 33,775 335 456 960
2019-01-21 21:01:03 GMT 53.221218 -1.428465 33,750 335 456 960
2019-01-21 21:01:00 GMT 53.215530 -1.423907 33,700 335 456 960
2019-01-21 21:00:57 GMT 53.210175 -1.419669 33,675 335 456 960
2019-01-21 21:00:53 GMT 53.202576 -1.413627 33,600 335 458 1024
2019-01-21 21:00:50 GMT 53.197617 -1.409643 33,550 335 458 1024
2019-01-21 21:00:47 GMT 53.191132 -1.404524 33,475 335 458 960
2019-01-21 21:00:43 GMT 53.183487 -1.398403 33,425 335 458 960
2019-01-21 21:00:40 GMT 53.178909 -1.394793 33,350 335 459 896
2019-01-21 21:00:37 GMT 53.173176 -1.390255 33,325 335 460 960
2019-01-21 21:00:34 GMT 53.166641 -1.385062 33,275 335 460 960
2019-01-21 21:00:31 GMT 53.155487 -1.376280 33,200 335 461 960
2019-01-21 21:00:28 GMT 53.155487 -1.376280 33,150 335 461 896
2019-01-21 21:00:25 GMT 53.149704 -1.371722 33,100 335 461 896
2019-01-21 21:00:22 GMT 53.143944 -1.367152 32,150 335 460 1024
2019-01-21 21:00:19 GMT 53.136215 -1.361093 33,025 335 461 896
2019-01-21 21:00:16 GMT 53.132397 -1.358023 32,925 335 461 960
2019-01-21 21:00:13 GMT 53.126999 -1.353823 32,950 335 461 960
2019-01-21 21:00:10 GMT 53.120453 -1.348650 32,775 335 462 1280
2019-01-21 21:00:07 GMT 53.113914 -1.343483 32,825 335 461 1280
2019-01-21 21:00:04 GMT 53.108517 -1.339201 32,750 335 461 1408
2019-01-21 21:00:01 GMT 53.103859 -1.335566 32,675 335 462 1408
2019-01-21 20:59:58 GMT 53.097713 -1.330719 32,650 335 462 1344
2019-01-21 20:59:55 GMT 53.091572 -1.325814 32,575 335 462 1216
2019-01-21 20:59:52 GMT 53.084587 -1.320321 32,475 335 462 1152
2019-01-21 20:59:49 GMT 53.079979 -1.316633 32,350 335 462 1024
2019-01-21 20:59:46 GMT 53.072662 -1.310883 32,350 335 462 960
2019-01-21 20:59:43 GMT 53.069180 -1.308079 32,325 335 462 960
2019-01-21 20:59:40 GMT 53.063416 -1.303558 32,275 335 462 960
2019-01-21 20:59:37 GMT 53.056889 -1.298349 32,175 335 460 960
2019-01-21 20:59:34 GMT 53.050743 -1.293562 32,150 335 460 1024
2019-01-21 20:59:31 GMT 53.044968 -1.288986 32,075 335 460 1280
2019-01-21 20:59:28 GMT 53.038452 -1.283831 31,900 335 460 1216
2019-01-21 20:59:25 GMT 53.032700 -1.279297 32,000 335 460 1152
2019-01-21 20:59:22 GMT 53.028854 -1.276321 31,950 335 460 1216
2019-01-21 20:59:19 GMT 53.021164 -1.270218 31,825 335 460 1280
2019-01-21 20:59:16 GMT 53.014668 -1.265154 31,700 335 460 1280
2019-01-21 20:59:13 GMT 53.009674 -1.261215 31,750 335 460 1280
2019-01-21 20:59:10 GMT 52.998138 -1.252213 31,600 335 460 1216
2019-01-21 20:59:07 GMT 52.998138 -1.252213 31,550 335 460 1152
2019-01-21 20:59:04 GMT 52.992367 -1.247655 31,500 335 460 1088
2019-01-21 20:59:01 GMT 52.985477 -1.242240 31,350 335 459 1088
2019-01-21 20:58:58 GMT 52.982025 -1.239548 31,400 335 459 1152
2019-01-21 20:58:55 GMT 52.970905 -1.230861 31,325 335 459 1216
2019-01-21 20:58:52 GMT 52.964401 -1.225739 31,250 335 459 1280
2019-01-21 20:58:49 GMT 52.964401 -1.225739 31,150 335 459 1408
2019-01-21 20:58:46 GMT 52.960602 -1.222763 31,075 335 459 1408
2019-01-21 20:58:43 GMT 52.954056 -1.217599 31,025 335 459 1408
2019-01-21 20:58:40 GMT 52.947556 -1.212540 30,950 335 458 1408
2019-01-21 20:58:37 GMT 52.942200 -1.208344 30,925 335 458 1408
2019-01-21 20:58:34 GMT 52.928776 -1.197824 30,775 335 458 1344
2019-01-21 20:58:31 GMT 52.928776 -1.197824 30,700 335 458 1344
2019-01-21 20:58:28 GMT 52.924961 -1.194842 30,675 335 459 1344
2019-01-21 20:58:25 GMT 52.918816 -1.190055 30,625 335 459 1344
2019-01-21 20:58:22 GMT 52.911530 -1.184311 30,525 335 459 1280
2019-01-21 20:58:19 GMT 52.906906 -1.180725 30,450 335 459 1280
2019-01-21 20:58:16 GMT 52.896927 -1.172943 30,375 335 458 1280
2019-01-21 20:58:13 GMT 52.896927 -1.172943 30,325 335 458 1280
2019-01-21 20:58:10 GMT 52.888882 -1.166670 30,275 335 458 1280
2019-01-21 20:58:07 GMT 52.884274 -1.163060 30,225 335 458 1344
2019-01-21 20:58:04 GMT 52.878174 -1.158273 30,150 335 458 1408
2019-01-21 20:58:01 GMT 52.866676 -1.149327 30,025 335 458 1344
2019-01-21 20:57:58 GMT 52.866676 -1.149327 30,000 335 458 1280
2019-01-21 20:57:55 GMT 52.862068 -1.145717 29,875 335 458 1280
2019-01-21 20:57:52 GMT 52.856323 -1.141205 29,825 335 458 1152
2019-01-21 20:57:49 GMT 52.849411 -1.135864 29,800 335 458 1024
2019-01-21 20:57:46 GMT 52.842545 -1.130524 29,725 335 458 832
2019-01-21 20:57:43 GMT 52.838699 -1.127548 29,650 335 457 768
2019-01-21 20:57:40 GMT 52.831833 -1.122131 29,650 335 456 704
2019-01-21 20:57:37 GMT 52.825386 -1.117074 29,575 335 455 896
2019-01-21 20:57:34 GMT 52.820435 -1.113205 29,175 335 454 1472
2019-01-21 20:57:31 GMT 52.813568 -1.107941 29,500 335 454 1216
2019-01-21 20:57:28 GMT 52.808258 -1.103745 29,450 335 454 1216
2019-01-21 20:57:24 GMT 52.801830 -1.098790 29,375 335 454 1344
2019-01-21 20:57:21 GMT 52.795395 -1.093750 29,225 335 454 1408
2019-01-21 20:57:18 GMT 52.790817 -1.090240 29,225 335 454 1472
2019-01-21 20:57:15 GMT 52.784370 -1.085214 28,950 335 453 1344
2019-01-21 20:57:12 GMT 52.772270 -1.075718 29,075 335 453 1344
2019-01-21 20:57:09 GMT 52.772270 -1.075718 28,950 335 453 960
2019-01-21 20:57:06 GMT 52.768112 -1.072464 28,925 335 453 1024
2019-01-21 20:57:03 GMT 52.762070 -1.067734 28,900 335 452 960
2019-01-21 20:57:00 GMT 52.757137 -1.063947 28,850 335 452 832
2019-01-21 20:56:57 GMT 52.751133 -1.059239 28,775 335 450 704
2019-01-21 20:56:54 GMT 52.745083 -1.054531 28,750 335 449 960
2019-01-21 20:56:51 GMT 52.739822 -1.050450 28,725 335 449 960
2019-01-21 20:56:48 GMT 52.734192 -1.046143 28,675 335 449 768
2019-01-21 20:56:45 GMT 52.728928 -1.042099 28,625 335 447 704
2019-01-21 20:56:42 GMT 52.721466 -1.036301 28,575 335 447 896
2019-01-21 20:56:39 GMT 52.716248 -1.032257 28,550 335 446 896
2019-01-21 20:56:36 GMT 52.712124 -1.029027 28,475 335 445 768
2019-01-21 20:56:33 GMT 52.700592 -1.020126 28,425 335 444 960
2019-01-21 20:56:30 GMT 52.700592 -1.020126 28,400 335 444 1024
2019-01-21 20:56:27 GMT 52.689873 -1.011841 28,300 335 442 1088
2019-01-21 20:56:24 GMT 52.689873 -1.011841 28,125 335 441 1152
2019-01-21 20:56:21 GMT 52.684296 -1.007538 28,225 335 442 1152
2019-01-21 20:56:18 GMT 52.677303 -1.002110 28,150 335 441 1152
2019-01-21 20:56:14 GMT 52.669899 -0.996460 28,075 335 441 1216
2019-01-21 20:56:11 GMT 52.665115 -0.992737 28,050 335 440 1216
2019-01-21 20:56:08 GMT 52.659210 -0.988235 27,950 335 440 1152
2019-01-21 20:56:05 GMT 52.654446 -0.984532 27,900 335 439 1216
2019-01-21 20:56:02 GMT 52.641541 -0.974579 27,800 335 439 1280
2019-01-21 20:55:59 GMT 52.641541 -0.974579 27,675 335 439 1344
2019-01-21 20:55:56 GMT 52.637146 -0.971222 27,700 335 438 1344
2019-01-21 20:55:53 GMT 52.630554 -0.966110 27,575 335 438 1216
2019-01-21 20:55:50 GMT 52.626514 -0.963030 27,550 335 438 1152
2019-01-21 20:55:47 GMT 52.621033 -0.958786 27,450 335 437 1088
2019-01-21 20:55:44 GMT 52.616272 -0.955104 27,425 335 437 1024
2019-01-21 20:55:41 GMT 52.610779 -0.950851 27,375 335 436 1024
2019-01-21 20:55:38 GMT 52.605652 -0.946884 27,375 335 436 1024
2019-01-21 20:55:35 GMT 52.598373 -0.941315 27,250 335 434 896
2019-01-21 20:55:32 GMT 52.592903 -0.937134 27,200 335 434 896
2019-01-21 20:55:29 GMT 52.588573 -0.933759 27,200 335 433 896
2019-01-21 20:55:26 GMT 52.583454 -0.929836 26,925 335 433 1088
2019-01-21 20:55:23 GMT 52.577316 -0.925140 27,050 335 432 1216
2019-01-21 20:55:20 GMT 52.572968 -0.921783 27,000 335 431 1216
2019-01-21 20:55:17 GMT 52.565735 -0.916214 26,900 335 431 1216
2019-01-21 20:55:14 GMT 52.558872 -0.910924 26,850 335 431 1344
2019-01-21 20:55:11 GMT 52.550961 -0.904881 26,775 335 430 1280
2019-01-21 20:55:08 GMT 52.547012 -0.901794 26,725 335 430 1088
2019-01-21 20:55:05 GMT 52.540512 -0.896835 26,675 335 429 960
2019-01-21 20:55:02 GMT 52.540512 -0.896835 26,625 335 428 1088
2019-01-21 20:54:59 GMT 52.535130 -0.892639 26,550 335 428 1344
2019-01-21 20:54:56 GMT 52.523682 -0.883850 26,475 335 428 1344
2019-01-21 20:54:53 GMT 52.517578 -0.879211 26,425 335 428 1408
2019-01-21 20:54:50 GMT 52.517578 -0.879211 26,375 335 428 1408
2019-01-21 20:54:47 GMT 52.512226 -0.875061 26,325 335 427 1344
2019-01-21 20:54:44 GMT 52.506500 -0.870667 26,225 335 427 1280
2019-01-21 20:54:41 GMT 52.501877 -0.867157 26,175 335 425 1216
2019-01-21 20:54:38 GMT 52.496540 -0.863055 26,075 335 425 1152
2019-01-21 20:54:35 GMT 52.491558 -0.859209 26,025 335 425 1216
2019-01-21 20:54:32 GMT 52.485489 -0.854645 25,975 335 425 1088
2019-01-21 20:54:29 GMT 52.480152 -0.850499 25,900 335 424 1088
2019-01-21 20:54:26 GMT 52.477314 -0.848380 25,850 335 424 1088
2019-01-21 20:54:23 GMT 52.469540 -0.842416 25,775 335 422 1216
2019-01-21 20:54:20 GMT 52.464249 -0.838318 25,750 336 421 1280
2019-01-21 20:54:17 GMT 52.459991 -0.835114 25,700 336 421 1472
2019-01-21 20:54:14 GMT 52.452595 -0.829468 25,575 336 421 1536
2019-01-21 20:54:11 GMT 52.449417 -0.827026 25,500 335 420 1600
2019-01-21 20:54:08 GMT 52.438156 -0.818481 25,350 336 420 1792
2019-01-21 20:54:05 GMT 52.438156 -0.818481 25,325 336 420 1856
2019-01-21 20:54:02 GMT 52.432205 -0.813930 25,250 336 420 1856
2019-01-21 20:53:59 GMT 52.428665 -0.811262 25,150 336 420 1920
2019-01-21 20:53:56 GMT 52.422684 -0.806656 25,050 336 421 1728
2019-01-21 20:53:53 GMT 52.417400 -0.802630 24,950 336 420 1600
2019-01-21 20:53:50 GMT 52.411770 -0.798392 24,875 336 419 1472
2019-01-21 20:53:47 GMT 52.407166 -0.794907 24,775 336 419 1472
2019-01-21 20:53:44 GMT 52.401199 -0.790388 24,725 336 419 1472
2019-01-21 20:53:41 GMT 52.392075 -0.783404 24,600 335 418 1536
2019-01-21 20:53:38 GMT 52.392075 -0.783404 24,575 335 418 1600
2019-01-21 20:53:35 GMT 52.386154 -0.778885 23,300 336 417 1536
2019-01-21 20:53:32 GMT 52.379837 -0.774078 24,400 336 417 1536
2019-01-21 20:53:29 GMT 52.370430 -0.766924 24,300 336 416 1536
2019-01-21 20:53:23 GMT 52.364456 -0.762405 24,150 336 416 1600
2019-01-21 20:53:20 GMT 52.359257 -0.758449 24,075 336 415 1536
2019-01-21 20:53:17 GMT 52.355068 -0.755232 24,025 336 415 1536
2019-01-21 20:53:14 GMT 52.348129 -0.749974 23,925 336 414 1472
2019-01-21 20:53:11 GMT 52.337704 -0.742048 23,825 336 414 1408
2019-01-21 20:53:07 GMT 52.337704 -0.742048 23,700 336 413 1344
2019-01-21 20:53:04 GMT 52.330070 -0.736241 23,650 336 412 1280
2019-01-21 20:53:01 GMT 52.320099 -0.728683 23,600 335 411 1024
2019-01-21 20:52:55 GMT 52.315933 -0.725555 23,475 336 409 960
2019-01-21 20:52:52 GMT 52.310486 -0.721359 23,425 336 408 960
2019-01-21 20:52:49 GMT 52.305679 -0.717773 23,425 336 407 1024
2019-01-21 20:52:46 GMT 52.301254 -0.714347 23,375 335 406 1088
2019-01-21 20:52:43 GMT 52.295471 -0.709991 23,250 336 403 1152
2019-01-21 20:52:40 GMT 52.289242 -0.705401 23,225 336 403 1152
2019-01-21 20:52:37 GMT 52.286358 -0.703047 23,175 336 403 1152
2019-01-21 20:52:34 GMT 52.280640 -0.698700 23,100 336 401 1152
2019-01-21 20:52:31 GMT 52.275238 -0.694656 23,050 336 400 1216
2019-01-21 20:52:28 GMT 52.269882 -0.690613 23,025 336 400 1216
2019-01-21 20:52:25 GMT 52.264851 -0.686802 22,900 336 398 1344
2019-01-21 20:52:19 GMT 52.255829 -0.680008 22,750 336 397 1472
2019-01-21 20:52:16 GMT 52.250835 -0.676287 22,700 336 397 1472
2019-01-21 20:52:12 GMT 52.244179 -0.671265 22,600 336 396 1728
2019-01-21 20:52:09 GMT 52.238525 -0.667038 22,450 336 395 1920
2019-01-21 20:52:06 GMT 52.234543 -0.664062 22,450 336 395 1920
2019-01-21 20:52:03 GMT 52.228912 -0.659886 22,250 336 396 2176
2019-01-21 20:52:00 GMT 52.223602 -0.655884 22,175 336 396 2240
2019-01-21 20:51:57 GMT 52.219940 -0.653152 22,100 336 395 2176
2019-01-21 20:51:54 GMT 52.213943 -0.648727 21,950 336 395 2176
2019-01-21 20:51:51 GMT 52.208633 -0.644760 21,875 336 396 2112
2019-01-21 20:51:48 GMT 52.198326 -0.637129 21,650 336 396 1984
2019-01-21 20:51:45 GMT 52.198326 -0.637129 21,600 336 396 2048
2019-01-21 20:51:42 GMT 52.194626 -0.634384 21,475 336 395 2048
2019-01-21 20:51:39 GMT 52.187988 -0.629501 21,425 336 395 2048
2019-01-21 20:51:36 GMT 52.184315 -0.626770 21,325 336 395 1856
2019-01-21 20:51:33 GMT 52.178356 -0.622375 21,175 336 395 1664
2019-01-21 20:51:30 GMT 52.173698 -0.618923 21,125 336 395 1664
2019-01-21 20:51:27 GMT 52.168076 -0.614700 21,000 336 393 1792
2019-01-21 20:51:24 GMT 52.164093 -0.611725 20,850 336 393 2112
2019-01-21 20:51:21 GMT 52.159828 -0.608486 20,875 336 393 2112
2019-01-21 20:51:18 GMT 52.148300 -0.599823 20,650 336 393 2816
2019-01-21 20:51:12 GMT 52.143677 -0.596390 20,450 338 395 2816
2019-01-21 20:51:09 GMT 52.138645 -0.592869 20,250 340 398 2752
2019-01-21 20:51:06 GMT 52.132782 -0.589294 20,150 342 400 2688
2019-01-21 20:51:03 GMT 52.128174 -0.586984 20,100 344 402 2688
2019-01-21 20:51:00 GMT 52.123795 -0.585257 19,950 347 404 2560
2019-01-21 20:50:57 GMT 52.117931 -0.583452 19,775 351 408 2432
2019-01-21 20:50:54 GMT 52.111134 -0.582040 19,550 0 413 1920
2019-01-21 20:50:51 GMT 52.106232 -0.581512 19,550 5 411 1984
2019-01-21 20:50:48 GMT 52.100098 -0.581360 19,400 1 414 1856
2019-01-21 20:50:45 GMT 52.094788 -0.581589 19,350 2 413 1792
2019-01-21 20:50:42 GMT 52.083714 -0.583060 19,075 5 412 1920
2019-01-21 20:50:36 GMT 52.076920 -0.584080 19,000 5 410 2112
2019-01-21 20:50:33 GMT 52.071609 -0.584865 18,875 5 410 2112
2019-01-21 20:50:30 GMT 52.065170 -0.585785 18,800 5 410 2176
2019-01-21 20:50:27 GMT 52.060638 -0.586472 18,725 5 409 2176
2019-01-21 20:50:24 GMT 52.055374 -0.587234 18,650 5 409 2176
2019-01-21 20:50:21 GMT 52.048599 -0.588226 18,425 5 407 2176
2019-01-21 20:50:18 GMT 52.042980 -0.589024 18,350 5 406 2240
2019-01-21 20:50:15 GMT 52.038513 -0.589652 18,300 5 407 2240
2019-01-21 20:50:12 GMT 52.031017 -0.590751 18,100 5 405 2176
2019-01-21 20:50:09 GMT 52.026169 -0.591431 17,825 5 404 2048
2019-01-21 20:50:06 GMT 52.020542 -0.592242 17,900 5 403 1856
2019-01-21 20:50:03 GMT 52.016464 -0.592880 17,825 5 403 1856
2019-01-21 20:50:00 GMT 52.010162 -0.593811 17,700 5 402 1792
2019-01-21 20:49:57 GMT 52.003143 -0.594864 17,675 5 401 1792
2019-01-21 20:49:54 GMT 51.994308 -0.596161 17,475 5 396 2176
2019-01-21 20:49:48 GMT 51.988449 -0.597076 17,150 5 394 2304
2019-01-21 20:49:44 GMT 51.974625 -0.599213 17,100 5 394 2304
2019-01-21 20:49:41 GMT 51.974625 -0.599213 17,025 5 394 2368
2019-01-21 20:49:38 GMT 51.969196 -0.600089 16,925 5 393 2368
2019-01-21 20:49:35 GMT 51.964821 -0.600717 16,825 5 393 2496
2019-01-21 20:49:32 GMT 51.959793 -0.601501 16,700 5 392 2496
2019-01-21 20:49:29 GMT 51.953613 -0.602493 16,600 5 392 2368
2019-01-21 20:49:26 GMT 51.949997 -0.603027 16,500 5 391 2304
2019-01-21 20:49:23 GMT 51.942810 -0.604248 16,300 5 390 1920
2019-01-21 20:49:20 GMT 51.938145 -0.605033 16,225 6 389 1920
2019-01-21 20:49:17 GMT 51.930634 -0.606308 16,125 6 388 1856
2019-01-21 20:49:14 GMT 51.925644 -0.607147 16,100 6 387 1792
2019-01-21 20:49:11 GMT 51.921062 -0.608015 15,900 6 384 1664
2019-01-21 20:49:08 GMT 51.916824 -0.608800 15,850 6 382 1792
2019-01-21 20:49:05 GMT 51.911888 -0.609741 15,800 6 381 1856
2019-01-21 20:49:02 GMT 51.906303 -0.610761 15,700 6 372 3072
2019-01-21 20:48:59 GMT 51.901463 -0.611703 15,625 6 378 2112
2019-01-21 20:48:56 GMT 51.895523 -0.612869 15,525 6 373 2816
2019-01-21 20:48:53 GMT 51.889343 -0.614047 15,325 7 375 2432
2019-01-21 20:48:50 GMT 51.884842 -0.615005 15,250 7 374 2496
2019-01-21 20:48:47 GMT 51.880699 -0.615768 15,150 7 374 2624
2019-01-21 20:48:44 GMT 51.874878 -0.616942 15,000 6 373 2816
2019-01-21 20:48:41 GMT 51.868362 -0.618286 14,775 6 373 2944
2019-01-21 20:48:38 GMT 51.864265 -0.619049 14,700 6 372 3072
2019-01-21 20:48:35 GMT 51.858444 -0.620208 14,550 6 372 3072
2019-01-21 20:48:32 GMT 51.850204 -0.621767 14,050 6 375 2816
2019-01-21 20:48:26 GMT 51.845444 -0.622732 14,125 6 373 3392
2019-01-21 20:48:23 GMT 51.837845 -0.624216 13,775 6 375 2944
2019-01-21 20:48:20 GMT 51.834412 -0.624810 13,475 6 374 2304
2019-01-21 20:48:17 GMT 51.829262 -0.625839 13,450 6 375 2880
2019-01-21 20:48:14 GMT 51.822369 -0.627136 13,400 6 375 2432
2019-01-21 20:48:11 GMT 51.818573 -0.627854 13,325 6 375 2368
2019-01-21 20:48:08 GMT 51.813080 -0.628819 12,500 6 374 2304
2019-01-21 20:48:05 GMT 51.808590 -0.629654 13,100 6 372 2240
2019-01-21 20:48:02 GMT 51.801453 -0.630972 12,825 6 369 2176
2019-01-21 20:47:59 GMT 51.797695 -0.631714 12,650 6 367 2176
2019-01-21 20:47:56 GMT 51.792950 -0.632629 12,825 6 369 2176
2019-01-21 20:47:53 GMT 51.782848 -0.634613 12,450 7 365 2240
2019-01-21 20:47:50 GMT 51.782848 -0.634613 12,500 7 365 2368
2019-01-21 20:47:47 GMT 51.776840 -0.635834 12,375 7 364 2432
2019-01-21 20:47:43 GMT 51.764557 -0.638543 12,150 7 362 2432
2019-01-21 20:47:40 GMT 51.764557 -0.638543 11,900 8 359 2368
2019-01-21 20:47:37 GMT 51.761261 -0.639360 11,900 8 359 2368
2019-01-21 20:47:34 GMT 51.755661 -0.640640 11,850 8 359 2368
2019-01-21 20:47:31 GMT 51.751373 -0.641587 11,575 8 358 2240
2019-01-21 20:47:28 GMT 51.747143 -0.642548 11,675 7 357 2112
2019-01-21 20:47:25 GMT 51.740295 -0.644111 11,475 7 351 1472
2019-01-21 20:47:21 GMT 51.734154 -0.645447 11,425 7 351 1472
2019-01-21 20:47:18 GMT 51.730637 -0.646189 11,350 7 349 1344
2019-01-21 20:47:15 GMT 51.720840 -0.648422 11,225 8 343 1216
2019-01-21 20:47:12 GMT 51.720840 -0.648422 11,200 8 340 1216
2019-01-21 20:47:09 GMT 51.714603 -0.649872 11,150 8 338 1216
2019-01-21 20:47:06 GMT 51.712181 -0.650406 11,025 8 332 1216
2019-01-21 20:47:03 GMT 51.705780 -0.651905 11,025 8 331 1280
2019-01-21 20:47:00 GMT 51.701569 -0.652870 10,975 8 328 1280
2019-01-21 20:46:57 GMT 51.697998 -0.653687 10,900 8 322 1344
2019-01-21 20:46:54 GMT 51.694164 -0.654602 10,825 8 321 1344
2019-01-21 20:46:51 GMT 51.687786 -0.656128 10,725 8 314 1408
2019-01-21 20:46:48 GMT 51.684036 -0.656953 10,675 8 311 1472
2019-01-21 20:46:45 GMT 51.680054 -0.657918 10,625 8 307 1664
2019-01-21 20:46:42 GMT 51.676117 -0.658809 10,475 8 304 1920
2019-01-21 20:46:39 GMT 51.666466 -0.661087 9,800 8 299 2816
2019-01-21 20:46:36 GMT 51.666466 -0.661087 10,250 8 297 3008
2019-01-21 20:46:33 GMT 51.664280 -0.661545 10,225 7 296 3200
2019-01-21 20:46:30 GMT 51.659134 -0.662743 10,000 7 296 3264
2019-01-21 20:46:27 GMT 51.656433 -0.663337 9,900 7 295 3328
2019-01-21 20:46:24 GMT 51.650730 -0.664520 9,650 7 295 3456
2019-01-21 20:46:18 GMT 51.642075 -0.666351 9,275 7 295 3392
2019-01-21 20:46:15 GMT 51.640182 -0.666677 9,050 7 295 3264
2019-01-21 20:46:12 GMT 51.636116 -0.667496 8,975 6 294 3328
2019-01-21 20:46:09 GMT 51.631226 -0.668411 8,725 6 293 3392
2019-01-21 20:46:06 GMT 51.627182 -0.669201 8,775 6 292 3456
2019-01-21 20:46:03 GMT 51.621826 -0.670166 8,425 6 292 3328
2019-01-21 20:46:00 GMT 51.619404 -0.670624 8,275 6 291 3136
2019-01-21 20:45:57 GMT 51.615372 -0.671279 8,125 6 291 3136
2019-01-21 20:45:54 GMT 51.611618 -0.671948 8,050 5 292 2496
2019-01-21 20:45:51 GMT 51.606506 -0.672836 7,775 5 292 2432
2019-01-21 20:45:45 GMT 51.599010 -0.674057 7,475 6 292 2368
2019-01-21 20:45:42 GMT 51.594406 -0.674843 7,425 6 292 2368
2019-01-21 20:45:39 GMT 51.589844 -0.675659 7,200 7 292 2432
2019-01-21 20:45:36 GMT 51.583416 -0.677032 7,075 7 289 2624
2019-01-21 20:45:33 GMT 51.579437 -0.677886 7,050 8 288 2624
2019-01-21 20:45:30 GMT 51.579437 -0.677886 6,950 8 287 2624
2019-01-21 20:45:27 GMT 51.574722 -0.679074 6,725 9 285 2624
2019-01-21 20:45:24 GMT 51.570801 -0.680084 6,675 9 285 2624
2019-01-21 20:45:21 GMT 51.567444 -0.680930 6,575 8 286 2624
2019-01-21 20:45:18 GMT 51.563232 -0.681969 6,450 8 285 2560
2019-01-21 20:45:15 GMT 51.559349 -0.682831 6,200 6 283 2688
2019-01-21 20:45:12 GMT 51.554649 -0.683823 6,100 6 283 2688
2019-01-21 20:45:08 GMT 51.549728 -0.684567 5,925 3 281 2688
2019-01-21 20:45:04 GMT 51.544781 -0.684814 5,675 358 277 2496
2019-01-21 20:45:01 GMT 51.541489 -0.684419 5,675 354 274 2432
2019-01-21 20:44:58 GMT 51.537239 -0.683289 5,500 346 271 1920
2019-01-21 20:44:55 GMT 51.530411 -0.679593 5,350 337 265 1856
2019-01-21 20:44:52 GMT 51.530411 -0.679593 5,300 330 260 1920
2019-01-21 20:44:49 GMT 51.527802 -0.677515 5,175 330 260 1920
2019-01-21 20:44:46 GMT 51.524094 -0.673952 5,100 301 245 1856
2019-01-21 20:44:43 GMT 51.518478 -0.667496 4,950 323 256 1984
2019-01-21 20:44:40 GMT 51.518478 -0.667496 4,925 320 254 1984
2019-01-21 20:44:37 GMT 51.515636 -0.663528 4,825 315 251 1920
2019-01-21 20:44:34 GMT 51.513729 -0.660324 4,725 303 246 1792
2019-01-21 20:44:31 GMT 51.509399 -0.650420 4,550 301 245 1856
2019-01-21 20:44:25 GMT 51.506378 -0.640770 4,350 297 243 1984
2019-01-21 20:44:22 GMT 51.506378 -0.640770 4,275 297 243 1984
2019-01-21 20:44:19 GMT 51.504883 -0.635910 4,175 296 243 1984
2019-01-21 20:44:16 GMT 51.503403 -0.631046 4,100 296 244 1920
2019-01-21 20:44:13 GMT 51.502258 -0.627111 4,000 296 244 1920
2019-01-21 20:44:10 GMT 51.499020 -0.616379 3,850 296 244 1664
2019-01-21 20:44:07 GMT 51.499020 -0.616379 3,800 296 244 1344
2019-01-21 20:44:04 GMT 51.497131 -0.610187 3,700 296 243 1344
2019-01-21 20:44:01 GMT 51.496273 -0.607300 3,625 296 242 1344
2019-01-21 20:43:57 GMT 51.494202 -0.600462 3,575 297 241 1280
2019-01-21 20:43:54 GMT 51.492733 -0.595703 3,475 297 240 1344
2019-01-21 20:43:51 GMT 51.491226 -0.590886 3,425 298 232 1536
2019-01-21 20:43:48 GMT 51.489754 -0.586166 3,400 298 233 1472
2019-01-21 20:43:45 GMT 51.487839 -0.580494 3,275 299 226 1920
2019-01-21 20:43:41 GMT 51.486282 -0.575743 3,175 299 217 2432
2019-01-21 20:43:37 GMT 51.484177 -0.569433 3,050 299 217 2432
2019-01-21 20:43:34 GMT 51.482960 -0.565796 2,800 296 209 2176
2019-01-21 20:43:31 GMT 51.481430 -0.561045 2,750 296 209 2176
2019-01-21 20:43:28 GMT 51.480072 -0.556335 2,625 287 198 1600
2019-01-21 20:43:25 GMT 51.479095 -0.552063 2,575 289 200 1664
2019-01-21 20:43:21 GMT 51.478317 -0.547015 2,400 278 187 1344
2019-01-21 20:43:17 GMT 51.477951 -0.542636 2,350 275 183 1408
2019-01-21 20:43:14 GMT 51.477814 -0.537810 2,250 270 177 1344
2019-01-21 20:43:10 GMT 51.477837 -0.532379 2,150 270 172 1408
2019-01-21 20:43:06 GMT 51.477882 -0.527878 2,050 270 166 1408
2019-01-21 20:43:03 GMT 51.477882 -0.522995 1,950 270 162 1472
2019-01-21 20:42:59 GMT 51.477928 -0.519180 1,875 270 160 1536
2019-01-21 20:42:56 GMT 51.477928 -0.515976 1,750 270 154 1600
2019-01-21 20:42:53 GMT 51.477978 -0.512772 1,700 270 151 1728
2019-01-21 20:42:50 GMT 51.477978 -0.508728 1,400 270 147 2304
2019-01-21 20:42:46 GMT 51.477978 -0.504761 1,475 270 146 2560
2019-01-21 20:42:43 GMT 51.477997 -0.501585 1,300 272 152 2560
2019-01-21 20:42:40 GMT 51.477997 -0.498096 1,000 271 147 3456
2019-01-21 20:42:36 GMT 51.477951 -0.494607 1,000 272 150 3200

Making use of Plane Finder data

You are free to use the raw flight data, aircraft information and images provided in this report for your own purposes provided the data is correctly attributed to Plane Finder. We ask that you please credit Plane Finder and link to planefinder.net in close proximity to the content.

Optionally one of the following logos (no smaller then 150x24px) can be used and must link to planefinder.net

Embedding the Plane Finder map

You are welcome to embed the Plane Finder playback map on your website to offer visitors a more interactive experience. We suggest using the following HTML code:

<iframe src="//planefinder.net/data/report/BA1318-G-EUOH-7700-squawk-2019-01-21/map" width="800" height="600" seamless="seamless"></iframe>

Where our data comes from

Plane Finder has a global network of data feeds and antenna radars that receive data broadcast directly from aircraft. The primary technologies used are ADS-B and MLAT. We also show feeds from the FAA and a FLARM glider feed.

Click here to find out more about the Plane Finder network.

How we collect our data